Estación municipal de Seva (Osona, P.N. del Montseny)

Consulta los datos en tiempo real de la estación municipal de Seva





Hora UTC 02:00
Temperatura 7.5 ºC
Suelo 15 cm 5.6 ºC
Humedad 97.0 %
Presión 1012.5 hPa
Pluja 0.0 mm
Velocidad viento 3.1 km/h
Dirección viento S
Radiación solar 0.1 W/m²

Webcam

Datos diarios 2026-05-06



Hora UTC (invierno +1h; verano +2h)
Temperatura (ºC) Humedad (%) Presión (hPa) Velocidad viento (km/h) Precipitación (mm) Radiación solar (W/m²)
Hora UTC Aire Suelo 15 cm Humedad Presión Vel. Dir. Vel. Max Dir. Intent. máx 5 min. Rad. Sol.
00:05 7.4 5.8 98.5 1012.9 5.0 SE 5.0 SE 0.0 0.1
00:10 7.4 6.0 98.6 1012.9 6.3 ESE 8.8 ESE 0.0 0.1
00:15 7.8 6.2 98.9 1012.9 7.7 SE 11.3 SE 0.0 0.0
00:20 7.9 6.4 98.5 1012.9 7.2 SE 11.6 SE 0.0 0.0
00:25 7.8 6.3 98.0 1012.8 4.9 SE 9.2 SE 0.0 0.1
00:30 7.8 6.2 98.1 1012.8 4.6 SE 7.4 ESE 0.0 0.0
00:35 7.8 6.2 98.3 1012.8 4.2 SSW 8.5 WSW 0.0 0.1
00:40 8.2 6.4 98.3 1012.8 5.4 SSE 11.6 SE 0.0 0.0
00:45 8.2 6.6 97.2 1012.8 3.8 SSE 6.0 SE 0.0 0.1
00:50 8.2 6.5 96.6 1012.7 4.3 ESE 13.4 ESE 0.0 0.0
00:55 8.3 6.5 95.1 1012.7 2.2 E 6.0 E 0.0 0.1
01:00 8.1 6.3 94.8 1012.7 2.1 S 10.6 SW 0.0 0.1
01:05 8.4 6.3 94.0 1012.6 3.0 W 12.0 WSW 0.0 0.1
01:10 8.3 6.2 93.2 1012.7 1.2 NNE 7.1 NNE 0.0 0.1
01:15 8.1 6.0 94.2 1012.7 4.0 E 9.2 ESE 0.0 0.1
01:20 8.0 6.0 95.1 1012.6 5.2 E 9.2 ESE 0.0 0.1
01:25 7.9 5.9 95.2 1012.6 4.8 SE 10.6 ESE 0.0 0.1
01:30 7.7 5.8 95.4 1012.6 2.3 SE 5.6 ESE 0.0 0.1
01:35 7.6 5.6 95.9 1012.6 2.3 SSE 5.3 SSE 0.0 0.1
01:40 7.4 5.5 96.3 1012.6 5.2 ESE 7.8 ESE 0.0 0.0
01:45 7.3 5.5 96.8 1012.5 3.5 SE 4.6 ESE 0.0 0.1
01:50 7.2 5.5 97.1 1012.6 3.1 SE 5.3 SE 0.0 0.1
01:55 7.5 5.6 97.8 1012.5 5.3 SSW 10.2 SSW 0.0 0.1
02:00 7.5 5.6 97.0 1012.5 3.1 S 8.8 SSE 0.0 0.1
Máxima 8.4 6.6 98.9 1012.9 7.7 SE 13.4 ESE 0.0 0.1
Mínima 7.2 5.5 93.2 1012.5
Total 0.0